sensor_id;sensor_type;location;lat;lon;timestamp;P1;durP1;ratioP1;P2;durP2;ratioP2
75358;SDS011;64046;51.978;5.934;2024-03-25T00:00:35;15.10;;;3.58;;
75358;SDS011;64046;51.978;5.934;2024-03-25T00:03:05;19.17;;;3.80;;
75358;SDS011;64046;51.978;5.934;2024-03-25T00:05:31;16.98;;;3.50;;
75358;SDS011;64046;51.978;5.934;2024-03-25T00:07:58;12.13;;;3.03;;
75358;SDS011;64046;51.978;5.934;2024-03-25T00:10:25;26.65;;;4.30;;
75358;SDS011;64046;51.978;5.934;2024-03-25T00:12:51;16.67;;;3.58;;
75358;SDS011;64046;51.978;5.934;2024-03-25T00:15:18;17.35;;;3.47;;
75358;SDS011;64046;51.978;5.934;2024-03-25T00:17:45;16.75;;;3.65;;
75358;SDS011;64046;51.978;5.934;2024-03-25T00:20:15;14.68;;;2.72;;
75358;SDS011;64046;51.978;5.934;2024-03-25T00:22:42;14.13;;;3.60;;
75358;SDS011;64046;51.978;5.934;2024-03-25T00:25:09;12.50;;;3.60;;
75358;SDS011;64046;51.978;5.934;2024-03-25T00:27:35;24.50;;;3.92;;
75358;SDS011;64046;51.978;5.934;2024-03-25T00:30:02;22.63;;;4.07;;
75358;SDS011;64046;51.978;5.934;2024-03-25T00:32:30;14.85;;;3.28;;
75358;SDS011;64046;51.978;5.934;2024-03-25T00:34:57;21.10;;;3.38;;
75358;SDS011;64046;51.978;5.934;2024-03-25T00:37:26;20.85;;;3.60;;
75358;SDS011;64046;51.978;5.934;2024-03-25T00:39:53;16.58;;;3.70;;
75358;SDS011;64046;51.978;5.934;2024-03-25T00:42:21;14.50;;;3.47;;
75358;SDS011;64046;51.978;5.934;2024-03-25T00:44:48;15.27;;;3.08;;
75358;SDS011;64046;51.978;5.934;2024-03-25T00:47:15;13.93;;;2.90;;
75358;SDS011;64046;51.978;5.934;2024-03-25T00:49:42;16.02;;;3.83;;
75358;SDS011;64046;51.978;5.934;2024-03-25T00:52:08;14.80;;;3.05;;
75358;SDS011;64046;51.978;5.934;2024-03-25T00:54:38;20.20;;;4.15;;
75358;SDS011;64046;51.978;5.934;2024-03-25T00:57:04;10.95;;;2.63;;
75358;SDS011;64046;51.978;5.934;2024-03-25T00:59:31;17.65;;;2.83;;
75358;SDS011;64046;51.978;5.934;2024-03-25T01:01:58;19.80;;;3.72;;
75358;SDS011;64046;51.978;5.934;2024-03-25T01:04:24;12.68;;;3.10;;
75358;SDS011;64046;51.978;5.934;2024-03-25T01:06:53;15.55;;;3.13;;
75358;SDS011;64046;51.978;5.934;2024-03-25T01:09:20;11.05;;;2.95;;
75358;SDS011;64046;51.978;5.934;2024-03-25T01:11:50;20.85;;;3.30;;
75358;SDS011;64046;51.978;5.934;2024-03-25T01:14:16;22.65;;;3.75;;
75358;SDS011;64046;51.978;5.934;2024-03-25T01:16:43;13.73;;;3.63;;
75358;SDS011;64046;51.978;5.934;2024-03-25T01:19:10;17.58;;;3.35;;
75358;SDS011;64046;51.978;5.934;2024-03-25T01:21:36;12.10;;;2.72;;
75358;SDS011;64046;51.978;5.934;2024-03-25T01:24:03;15.15;;;2.70;;
75358;SDS011;64046;51.978;5.934;2024-03-25T01:26:30;19.00;;;3.67;;
75358;SDS011;64046;51.978;5.934;2024-03-25T01:28:59;12.95;;;2.97;;
75358;SDS011;64046;51.978;5.934;2024-03-25T01:31:26;19.98;;;4.15;;
75358;SDS011;64046;51.978;5.934;2024-03-25T01:33:53;16.90;;;3.60;;
75358;SDS011;64046;51.978;5.934;2024-03-25T01:36:19;14.50;;;3.00;;
75358;SDS011;64046;51.978;5.934;2024-03-25T01:38:46;7.85;;;3.10;;
75358;SDS011;64046;51.978;5.934;2024-03-25T01:41:19;17.75;;;3.80;;
75358;SDS011;64046;51.978;5.934;2024-03-25T01:43:48;24.50;;;3.67;;
75358;SDS011;64046;51.978;5.934;2024-03-25T01:46:18;16.10;;;3.53;;
75358;SDS011;64046;51.978;5.934;2024-03-25T01:48:45;14.35;;;3.85;;
75358;SDS011;64046;51.978;5.934;2024-03-25T01:51:12;17.38;;;4.50;;
75358;SDS011;64046;51.978;5.934;2024-03-25T01:53:40;21.92;;;3.70;;
75358;SDS011;64046;51.978;5.934;2024-03-25T01:56:08;25.17;;;3.67;;
75358;SDS011;64046;51.978;5.934;2024-03-25T01:58:36;16.77;;;4.53;;
75358;SDS011;64046;51.978;5.934;2024-03-25T02:01:03;16.52;;;3.10;;
75358;SDS011;64046;51.978;5.934;2024-03-25T02:03:33;15.88;;;4.00;;
75358;SDS011;64046;51.978;5.934;2024-03-25T02:06:00;17.33;;;4.20;;
75358;SDS011;64046;51.978;5.934;2024-03-25T02:08:32;26.70;;;5.05;;
75358;SDS011;64046;51.978;5.934;2024-03-25T02:11:00;23.50;;;4.25;;
75358;SDS011;64046;51.978;5.934;2024-03-25T02:13:27;19.67;;;4.32;;
75358;SDS011;64046;51.978;5.934;2024-03-25T02:15:54;14.50;;;3.30;;
75358;SDS011;64046;51.978;5.934;2024-03-25T02:18:21;12.13;;;3.33;;
75358;SDS011;64046;51.978;5.934;2024-03-25T02:20:50;11.70;;;3.05;;
75358;SDS011;64046;51.978;5.934;2024-03-25T02:23:18;16.70;;;4.25;;
75358;SDS011;64046;51.978;5.934;2024-03-25T02:25:50;16.95;;;3.85;;
75358;SDS011;64046;51.978;5.934;2024-03-25T02:28:17;12.35;;;3.50;;
75358;SDS011;64046;51.978;5.934;2024-03-25T02:30:45;20.65;;;3.50;;
75358;SDS011;64046;51.978;5.934;2024-03-25T02:33:11;15.73;;;3.67;;
75358;SDS011;64046;51.978;5.934;2024-03-25T02:35:39;20.42;;;3.40;;
75358;SDS011;64046;51.978;5.934;2024-03-25T02:38:08;21.45;;;3.80;;
75358;SDS011;64046;51.978;5.934;2024-03-25T02:40:35;26.42;;;5.70;;
75358;SDS011;64046;51.978;5.934;2024-03-25T02:43:06;13.80;;;3.83;;
75358;SDS011;64046;51.978;5.934;2024-03-25T02:45:33;12.57;;;3.85;;
75358;SDS011;64046;51.978;5.934;2024-03-25T02:48:00;16.35;;;2.80;;
75358;SDS011;64046;51.978;5.934;2024-03-25T02:50:26;27.67;;;3.83;;
75358;SDS011;64046;51.978;5.934;2024-03-25T02:52:53;17.52;;;3.92;;
75358;SDS011;64046;51.978;5.934;2024-03-25T02:55:20;21.70;;;3.70;;
75358;SDS011;64046;51.978;5.934;2024-03-25T02:57:47;14.20;;;3.47;;
75358;SDS011;64046;51.978;5.934;2024-03-25T03:00:16;24.63;;;5.15;;
75358;SDS011;64046;51.978;5.934;2024-03-25T03:02:44;19.23;;;4.05;;
75358;SDS011;64046;51.978;5.934;2024-03-25T03:05:11;15.70;;;3.35;;
75358;SDS011;64046;51.978;5.934;2024-03-25T03:07:38;14.88;;;3.20;;
75358;SDS011;64046;51.978;5.934;2024-03-25T03:10:05;14.55;;;3.28;;
75358;SDS011;64046;51.978;5.934;2024-03-25T03:12:32;12.07;;;3.60;;
75358;SDS011;64046;51.978;5.934;2024-03-25T03:14:59;19.73;;;3.90;;
75358;SDS011;64046;51.978;5.934;2024-03-25T03:17:28;24.27;;;4.13;;
75358;SDS011;64046;51.978;5.934;2024-03-25T03:19:55;17.67;;;3.97;;
75358;SDS011;64046;51.978;5.934;2024-03-25T03:22:21;22.17;;;3.75;;
75358;SDS011;64046;51.978;5.934;2024-03-25T03:24:48;16.33;;;4.00;;
75358;SDS011;64046;51.978;5.934;2024-03-25T03:27:15;21.60;;;4.22;;
75358;SDS011;64046;51.978;5.934;2024-03-25T03:29:42;19.17;;;4.22;;
75358;SDS011;64046;51.978;5.934;2024-03-25T03:32:08;21.27;;;4.72;;
75358;SDS011;64046;51.978;5.934;2024-03-25T03:34:38;21.67;;;3.80;;
75358;SDS011;64046;51.978;5.934;2024-03-25T03:37:05;7.80;;;2.90;;
75358;SDS011;64046;51.978;5.934;2024-03-25T03:39:31;17.50;;;3.65;;
75358;SDS011;64046;51.978;5.934;2024-03-25T03:41:58;13.85;;;3.20;;
75358;SDS011;64046;51.978;5.934;2024-03-25T03:44:25;22.20;;;4.20;;
75358;SDS011;64046;51.978;5.934;2024-03-25T03:46:51;13.10;;;3.10;;
75358;SDS011;64046;51.978;5.934;2024-03-25T03:49:18;17.25;;;4.07;;
75358;SDS011;64046;51.978;5.934;2024-03-25T03:51:47;16.33;;;2.88;;
75358;SDS011;64046;51.978;5.934;2024-03-25T03:54:14;14.10;;;3.45;;
75358;SDS011;64046;51.978;5.934;2024-03-25T03:56:41;12.20;;;3.58;;
75358;SDS011;64046;51.978;5.934;2024-03-25T03:59:07;16.52;;;3.17;;
75358;SDS011;64046;51.978;5.934;2024-03-25T04:01:36;12.52;;;4.13;;
75358;SDS011;64046;51.978;5.934;2024-03-25T04:04:03;16.38;;;3.67;;
75358;SDS011;64046;51.978;5.934;2024-03-25T04:06:30;18.38;;;4.40;;
75358;SDS011;64046;51.978;5.934;2024-03-25T04:08:59;17.30;;;3.63;;
75358;SDS011;64046;51.978;5.934;2024-03-25T04:11:26;16.35;;;4.25;;
75358;SDS011;64046;51.978;5.934;2024-03-25T04:13:53;22.08;;;4.00;;
75358;SDS011;64046;51.978;5.934;2024-03-25T04:16:19;20.08;;;4.97;;
75358;SDS011;64046;51.978;5.934;2024-03-25T04:18:47;15.93;;;3.25;;
75358;SDS011;64046;51.978;5.934;2024-03-25T04:21:13;21.25;;;4.55;;
75358;SDS011;64046;51.978;5.934;2024-03-25T04:23:40;14.00;;;3.78;;
75358;SDS011;64046;51.978;5.934;2024-03-25T04:26:09;15.13;;;3.35;;
75358;SDS011;64046;51.978;5.934;2024-03-25T04:28:36;16.10;;;4.10;;
75358;SDS011;64046;51.978;5.934;2024-03-25T04:31:03;15.43;;;3.75;;
75358;SDS011;64046;51.978;5.934;2024-03-25T04:33:30;16.42;;;3.83;;
75358;SDS011;64046;51.978;5.934;2024-03-25T04:35:56;17.77;;;3.72;;
75358;SDS011;64046;51.978;5.934;2024-03-25T04:38:23;21.88;;;5.13;;
75358;SDS011;64046;51.978;5.934;2024-03-25T04:40:50;20.92;;;4.55;;
75358;SDS011;64046;51.978;5.934;2024-03-25T04:43:20;16.80;;;4.05;;
75358;SDS011;64046;51.978;5.934;2024-03-25T04:45:46;17.90;;;4.72;;
75358;SDS011;64046;51.978;5.934;2024-03-25T04:48:13;18.15;;;4.68;;
75358;SDS011;64046;51.978;5.934;2024-03-25T04:50:40;19.65;;;5.32;;
75358;SDS011;64046;51.978;5.934;2024-03-25T04:53:06;12.98;;;4.60;;
75358;SDS011;64046;51.978;5.934;2024-03-25T04:55:33;15.80;;;4.13;;
75358;SDS011;64046;51.978;5.934;2024-03-25T04:58:00;11.73;;;4.10;;
75358;SDS011;64046;51.978;5.934;2024-03-25T05:00:29;13.82;;;4.07;;
75358;SDS011;64046;51.978;5.934;2024-03-25T05:02:56;17.88;;;4.38;;
75358;SDS011;64046;51.978;5.934;2024-03-25T05:05:23;18.73;;;4.40;;
75358;SDS011;64046;51.978;5.934;2024-03-25T05:07:50;24.00;;;4.90;;
75358;SDS011;64046;51.978;5.934;2024-03-25T05:10:16;21.17;;;4.82;;
75358;SDS011;64046;51.978;5.934;2024-03-25T05:12:43;19.08;;;4.90;;
75358;SDS011;64046;51.978;5.934;2024-03-25T05:15:10;14.93;;;4.50;;
75358;SDS011;64046;51.978;5.934;2024-03-25T05:17:39;19.27;;;4.63;;
75358;SDS011;64046;51.978;5.934;2024-03-25T05:20:06;18.70;;;5.38;;
75358;SDS011;64046;51.978;5.934;2024-03-25T05:22:33;19.40;;;4.10;;
75358;SDS011;64046;51.978;5.934;2024-03-25T05:25:00;13.02;;;3.95;;
75358;SDS011;64046;51.978;5.934;2024-03-25T05:27:27;15.18;;;4.60;;
75358;SDS011;64046;51.978;5.934;2024-03-25T05:29:53;17.38;;;4.20;;
75358;SDS011;64046;51.978;5.934;2024-03-25T05:32:20;20.80;;;4.68;;
75358;SDS011;64046;51.978;5.934;2024-03-25T05:34:50;18.52;;;4.93;;
75358;SDS011;64046;51.978;5.934;2024-03-25T05:37:17;14.00;;;4.82;;
75358;SDS011;64046;51.978;5.934;2024-03-25T05:39:44;16.20;;;4.90;;
75358;SDS011;64046;51.978;5.934;2024-03-25T05:42:10;17.35;;;5.07;;
75358;SDS011;64046;51.978;5.934;2024-03-25T05:44:37;16.10;;;4.07;;
75358;SDS011;64046;51.978;5.934;2024-03-25T05:47:04;12.32;;;4.07;;
75358;SDS011;64046;51.978;5.934;2024-03-25T05:49:31;16.58;;;4.45;;
75358;SDS011;64046;51.978;5.934;2024-03-25T05:52:00;23.00;;;4.30;;
75358;SDS011;64046;51.978;5.934;2024-03-25T05:54:27;18.60;;;4.95;;
75358;SDS011;64046;51.978;5.934;2024-03-25T05:56:53;16.60;;;3.65;;
75358;SDS011;64046;51.978;5.934;2024-03-25T05:59:20;15.27;;;3.67;;
75358;SDS011;64046;51.978;5.934;2024-03-25T06:01:47;20.17;;;4.90;;
75358;SDS011;64046;51.978;5.934;2024-03-25T06:04:16;16.13;;;4.15;;
75358;SDS011;64046;51.978;5.934;2024-03-25T06:06:43;11.07;;;3.35;;
75358;SDS011;64046;51.978;5.934;2024-03-25T06:09:12;23.33;;;4.63;;
75358;SDS011;64046;51.978;5.934;2024-03-25T06:11:39;17.42;;;4.32;;
75358;SDS011;64046;51.978;5.934;2024-03-25T06:14:06;20.05;;;4.88;;
75358;SDS011;64046;51.978;5.934;2024-03-25T06:16:32;17.25;;;5.63;;
75358;SDS011;64046;51.978;5.934;2024-03-25T06:18:59;21.05;;;4.45;;
75358;SDS011;64046;51.978;5.934;2024-03-25T06:21:26;16.92;;;4.07;;
75358;SDS011;64046;51.978;5.934;2024-03-25T06:23:53;19.05;;;4.38;;
75358;SDS011;64046;51.978;5.934;2024-03-25T06:26:22;22.58;;;4.88;;
75358;SDS011;64046;51.978;5.934;2024-03-25T06:28:49;16.15;;;4.68;;
75358;SDS011;64046;51.978;5.934;2024-03-25T06:31:15;24.67;;;8.75;;
75358;SDS011;64046;51.978;5.934;2024-03-25T06:33:57;10.77;;;4.00;;
75358;SDS011;64046;51.978;5.934;2024-03-25T06:36:40;17.50;;;3.75;;
75358;SDS011;64046;51.978;5.934;2024-03-25T06:39:07;15.82;;;4.25;;
75358;SDS011;64046;51.978;5.934;2024-03-25T06:41:36;16.55;;;4.65;;
75358;SDS011;64046;51.978;5.934;2024-03-25T06:44:03;16.17;;;4.15;;
75358;SDS011;64046;51.978;5.934;2024-03-25T06:46:30;23.17;;;4.55;;
75358;SDS011;64046;51.978;5.934;2024-03-25T06:48:57;19.27;;;4.47;;
75358;SDS011;64046;51.978;5.934;2024-03-25T06:51:24;19.40;;;4.95;;
75358;SDS011;64046;51.978;5.934;2024-03-25T06:53:51;15.63;;;4.07;;
75358;SDS011;64046;51.978;5.934;2024-03-25T06:56:18;18.63;;;4.13;;
75358;SDS011;64046;51.978;5.934;2024-03-25T06:58:47;23.73;;;5.40;;
75358;SDS011;64046;51.978;5.934;2024-03-25T07:01:14;25.88;;;5.20;;
75358;SDS011;64046;51.978;5.934;2024-03-25T07:03:41;19.17;;;4.43;;
75358;SDS011;64046;51.978;5.934;2024-03-25T07:06:08;19.67;;;4.32;;
75358;SDS011;64046;51.978;5.934;2024-03-25T07:08:34;16.30;;;4.32;;
75358;SDS011;64046;51.978;5.934;2024-03-25T07:11:01;20.70;;;4.78;;
75358;SDS011;64046;51.978;5.934;2024-03-25T07:13:30;15.45;;;4.25;;
75358;SDS011;64046;51.978;5.934;2024-03-25T07:15:59;19.83;;;4.03;;
75358;SDS011;64046;51.978;5.934;2024-03-25T07:18:26;23.10;;;4.53;;
75358;SDS011;64046;51.978;5.934;2024-03-25T07:20:53;24.20;;;4.70;;
75358;SDS011;64046;51.978;5.934;2024-03-25T07:23:20;20.92;;;5.07;;
75358;SDS011;64046;51.978;5.934;2024-03-25T07:25:46;18.98;;;4.40;;
75358;SDS011;64046;51.978;5.934;2024-03-25T07:28:13;19.80;;;5.72;;
75358;SDS011;64046;51.978;5.934;2024-03-25T07:30:40;19.77;;;4.28;;
75358;SDS011;64046;51.978;5.934;2024-03-25T07:33:10;11.55;;;4.25;;
75358;SDS011;64046;51.978;5.934;2024-03-25T07:35:37;16.42;;;3.97;;
75358;SDS011;64046;51.978;5.934;2024-03-25T07:38:04;19.77;;;4.07;;
75358;SDS011;64046;51.978;5.934;2024-03-25T07:40:30;13.40;;;4.00;;
75358;SDS011;64046;51.978;5.934;2024-03-25T07:42:57;16.85;;;4.07;;
75358;SDS011;64046;51.978;5.934;2024-03-25T07:45:24;22.50;;;4.43;;
75358;SDS011;64046;51.978;5.934;2024-03-25T07:47:52;20.60;;;4.53;;
75358;SDS011;64046;51.978;5.934;2024-03-25T07:50:22;23.67;;;5.50;;
75358;SDS011;64046;51.978;5.934;2024-03-25T07:52:49;18.95;;;5.15;;
75358;SDS011;64046;51.978;5.934;2024-03-25T07:55:16;18.95;;;4.32;;
75358;SDS011;64046;51.978;5.934;2024-03-25T07:57:42;17.20;;;4.32;;
75358;SDS011;64046;51.978;5.934;2024-03-25T08:00:09;15.45;;;3.88;;
75358;SDS011;64046;51.978;5.934;2024-03-25T08:02:40;15.05;;;3.70;;
75358;SDS011;64046;51.978;5.934;2024-03-25T08:05:06;13.10;;;3.53;;
75358;SDS011;64046;51.978;5.934;2024-03-25T08:07:36;11.25;;;3.10;;
75358;SDS011;64046;51.978;5.934;2024-03-25T08:10:03;13.50;;;3.10;;
75358;SDS011;64046;51.978;5.934;2024-03-25T08:12:30;16.38;;;3.70;;
75358;SDS011;64046;51.978;5.934;2024-03-25T08:14:56;19.15;;;3.95;;
75358;SDS011;64046;51.978;5.934;2024-03-25T08:17:23;11.90;;;3.75;;
75358;SDS011;64046;51.978;5.934;2024-03-25T08:19:50;14.23;;;3.85;;
75358;SDS011;64046;51.978;5.934;2024-03-25T08:22:17;17.67;;;4.28;;
75358;SDS011;64046;51.978;5.934;2024-03-25T08:24:46;14.13;;;3.60;;
75358;SDS011;64046;51.978;5.934;2024-03-25T08:27:13;11.95;;;3.30;;
75358;SDS011;64046;51.978;5.934;2024-03-25T08:29:40;21.17;;;4.25;;
75358;SDS011;64046;51.978;5.934;2024-03-25T08:32:06;15.13;;;3.35;;
75358;SDS011;64046;51.978;5.934;2024-03-25T08:34:33;21.42;;;4.25;;
75358;SDS011;64046;51.978;5.934;2024-03-25T08:37:00;17.15;;;3.83;;
75358;SDS011;64046;51.978;5.934;2024-03-25T08:39:26;12.60;;;3.67;;
75358;SDS011;64046;51.978;5.934;2024-03-25T08:41:56;23.85;;;4.43;;
75358;SDS011;64046;51.978;5.934;2024-03-25T08:44:22;13.45;;;3.70;;
75358;SDS011;64046;51.978;5.934;2024-03-25T08:46:49;17.67;;;3.72;;
75358;SDS011;64046;51.978;5.934;2024-03-25T08:49:16;13.27;;;3.60;;
75358;SDS011;64046;51.978;5.934;2024-03-25T08:51:43;14.45;;;3.33;;
75358;SDS011;64046;51.978;5.934;2024-03-25T08:54:09;14.02;;;3.78;;
75358;SDS011;64046;51.978;5.934;2024-03-25T08:56:36;16.63;;;4.13;;
75358;SDS011;64046;51.978;5.934;2024-03-25T08:59:06;14.32;;;3.00;;
75358;SDS011;64046;51.978;5.934;2024-03-25T09:01:32;27.95;;;4.32;;
75358;SDS011;64046;51.978;5.934;2024-03-25T09:03:59;13.88;;;3.80;;
75358;SDS011;64046;51.978;5.934;2024-03-25T09:06:27;14.27;;;3.60;;
75358;SDS011;64046;51.978;5.934;2024-03-25T09:08:55;18.50;;;4.05;;
75358;SDS011;64046;51.978;5.934;2024-03-25T09:11:37;11.15;;;2.90;;
75358;SDS011;64046;51.978;5.934;2024-03-25T09:14:06;11.75;;;2.75;;
75358;SDS011;64046;51.978;5.934;2024-03-25T09:16:33;14.10;;;4.25;;
75358;SDS011;64046;51.978;5.934;2024-03-25T09:18:59;15.82;;;3.25;;
75358;SDS011;64046;51.978;5.934;2024-03-25T09:21:26;13.65;;;3.40;;
75358;SDS011;64046;51.978;5.934;2024-03-25T09:23:53;15.18;;;3.35;;
75358;SDS011;64046;51.978;5.934;2024-03-25T09:26:20;14.15;;;3.67;;
75358;SDS011;64046;51.978;5.934;2024-03-25T09:28:47;15.73;;;3.05;;
75358;SDS011;64046;51.978;5.934;2024-03-25T09:37:06;14.48;;;3.47;;
75358;SDS011;64046;51.978;5.934;2024-03-25T09:39:38;13.40;;;3.15;;
75358;SDS011;64046;51.978;5.934;2024-03-25T09:42:18;15.68;;;4.15;;
75358;SDS011;64046;51.978;5.934;2024-03-25T09:44:53;9.90;;;3.13;;
75358;SDS011;64046;51.978;5.934;2024-03-25T09:47:33;6.72;;;2.40;;
75358;SDS011;64046;51.978;5.934;2024-03-25T09:50:21;11.32;;;3.22;;
75358;SDS011;64046;51.978;5.934;2024-03-25T09:52:48;12.07;;;3.67;;
75358;SDS011;64046;51.978;5.934;2024-03-25T09:55:16;10.88;;;2.80;;
75358;SDS011;64046;51.978;5.934;2024-03-25T09:57:43;11.65;;;3.60;;
75358;SDS011;64046;51.978;5.934;2024-03-25T10:00:11;15.13;;;3.40;;
75358;SDS011;64046;51.978;5.934;2024-03-25T10:02:41;15.90;;;3.03;;
75358;SDS011;64046;51.978;5.934;2024-03-25T10:05:08;11.65;;;2.95;;
75358;SDS011;64046;51.978;5.934;2024-03-25T10:07:35;16.08;;;3.13;;
75358;SDS011;64046;51.978;5.934;2024-03-25T10:10:03;9.73;;;3.38;;
75358;SDS011;64046;51.978;5.934;2024-03-25T10:12:30;9.50;;;3.53;;
75358;SDS011;64046;51.978;5.934;2024-03-25T10:14:57;12.73;;;2.72;;
75358;SDS011;64046;51.978;5.934;2024-03-25T10:17:24;11.38;;;2.83;;
75358;SDS011;64046;51.978;5.934;2024-03-25T10:19:53;10.88;;;3.08;;
75358;SDS011;64046;51.978;5.934;2024-03-25T10:22:20;11.80;;;3.05;;
75358;SDS011;64046;51.978;5.934;2024-03-25T10:28:30;7.60;;;2.80;;
75358;SDS011;64046;51.978;5.934;2024-03-25T10:31:38;13.75;;;2.40;;
75358;SDS011;64046;51.978;5.934;2024-03-25T10:34:18;10.93;;;2.95;;
75358;SDS011;64046;51.978;5.934;2024-03-25T10:37:06;12.23;;;3.22;;
75358;SDS011;64046;51.978;5.934;2024-03-25T10:39:44;9.38;;;2.17;;
75358;SDS011;64046;51.978;5.934;2024-03-25T10:42:25;15.45;;;3.40;;
75358;SDS011;64046;51.978;5.934;2024-03-25T10:45:09;7.45;;;2.28;;
75358;SDS011;64046;51.978;5.934;2024-03-25T10:48:41;15.20;;;2.88;;
75358;SDS011;64046;51.978;5.934;2024-03-25T10:51:30;9.98;;;2.63;;
75358;SDS011;64046;51.978;5.934;2024-03-25T10:54:07;9.75;;;2.78;;
75358;SDS011;64046;51.978;5.934;2024-03-25T10:56:36;12.40;;;3.05;;
75358;SDS011;64046;51.978;5.934;2024-03-25T10:59:03;13.80;;;3.03;;
75358;SDS011;64046;51.978;5.934;2024-03-25T11:01:41;14.48;;;3.85;;
75358;SDS011;64046;51.978;5.934;2024-03-25T11:04:18;15.63;;;3.22;;
75358;SDS011;64046;51.978;5.934;2024-03-25T11:06:54;12.13;;;2.63;;
75358;SDS011;64046;51.978;5.934;2024-03-25T11:09:32;13.23;;;3.25;;
75358;SDS011;64046;51.978;5.934;2024-03-25T11:18:24;7.80;;;2.20;;
75358;SDS011;64046;51.978;5.934;2024-03-25T11:21:31;10.25;;;2.50;;
75358;SDS011;64046;51.978;5.934;2024-03-25T11:24:29;9.95;;;2.45;;
75358;SDS011;64046;51.978;5.934;2024-03-25T11:27:02;10.98;;;2.67;;
75358;SDS011;64046;51.978;5.934;2024-03-25T11:29:32;8.15;;;2.78;;
75358;SDS011;64046;51.978;5.934;2024-03-25T11:32:03;9.38;;;2.80;;
75358;SDS011;64046;51.978;5.934;2024-03-25T11:34:31;12.05;;;2.60;;
75358;SDS011;64046;51.978;5.934;2024-03-25T11:36:59;6.57;;;1.95;;
75358;SDS011;64046;51.978;5.934;2024-03-25T11:39:31;5.00;;;2.10;;
75358;SDS011;64046;51.978;5.934;2024-03-25T11:41:58;11.55;;;2.40;;
75358;SDS011;64046;51.978;5.934;2024-03-25T11:44:29;8.68;;;2.63;;
75358;SDS011;64046;51.978;5.934;2024-03-25T11:46:56;10.13;;;2.67;;
75358;SDS011;64046;51.978;5.934;2024-03-25T11:49:24;8.18;;;3.10;;
75358;SDS011;64046;51.978;5.934;2024-03-25T11:51:59;9.63;;;3.20;;
75358;SDS011;64046;51.978;5.934;2024-03-25T11:54:46;7.07;;;2.38;;
75358;SDS011;64046;51.978;5.934;2024-03-25T12:01:12;5.55;;;2.20;;
75358;SDS011;64046;51.978;5.934;2024-03-25T12:03:50;9.73;;;2.63;;
75358;SDS011;64046;51.978;5.934;2024-03-25T12:06:54;12.70;;;3.45;;
75358;SDS011;64046;51.978;5.934;2024-03-25T12:09:28;15.98;;;4.20;;
75358;SDS011;64046;51.978;5.934;2024-03-25T12:12:41;8.82;;;3.15;;
75358;SDS011;64046;51.978;5.934;2024-03-25T12:15:16;6.70;;;2.08;;
75358;SDS011;64046;51.978;5.934;2024-03-25T12:17:50;8.88;;;3.00;;
75358;SDS011;64046;51.978;5.934;2024-03-25T12:20:19;11.57;;;3.20;;
75358;SDS011;64046;51.978;5.934;2024-03-25T12:22:46;11.65;;;2.95;;
75358;SDS011;64046;51.978;5.934;2024-03-25T12:25:18;13.45;;;3.20;;
75358;SDS011;64046;51.978;5.934;2024-03-25T12:27:48;10.57;;;3.58;;
75358;SDS011;64046;51.978;5.934;2024-03-25T12:30:19;9.45;;;3.47;;
75358;SDS011;64046;51.978;5.934;2024-03-25T12:32:46;7.80;;;2.50;;
75358;SDS011;64046;51.978;5.934;2024-03-25T12:35:13;11.30;;;2.53;;
75358;SDS011;64046;51.978;5.934;2024-03-25T12:37:41;5.68;;;2.28;;
75358;SDS011;64046;51.978;5.934;2024-03-25T12:40:09;7.57;;;2.47;;
75358;SDS011;64046;51.978;5.934;2024-03-25T12:42:37;7.80;;;2.97;;
75358;SDS011;64046;51.978;5.934;2024-03-25T12:45:07;6.65;;;2.65;;
75358;SDS011;64046;51.978;5.934;2024-03-25T12:47:34;12.57;;;4.07;;
75358;SDS011;64046;51.978;5.934;2024-03-25T12:50:04;7.45;;;3.05;;
75358;SDS011;64046;51.978;5.934;2024-03-25T12:56:01;7.38;;;3.10;;
75358;SDS011;64046;51.978;5.934;2024-03-25T12:59:14;11.35;;;3.25;;
75358;SDS011;64046;51.978;5.934;2024-03-25T13:05:23;10.82;;;2.72;;
75358;SDS011;64046;51.978;5.934;2024-03-25T13:07:58;5.85;;;2.78;;
75358;SDS011;64046;51.978;5.934;2024-03-25T13:10:26;9.18;;;3.28;;
75358;SDS011;64046;51.978;5.934;2024-03-25T13:13:03;8.18;;;3.33;;
75358;SDS011;64046;51.978;5.934;2024-03-25T13:15:34;9.50;;;3.42;;
75358;SDS011;64046;51.978;5.934;2024-03-25T13:18:04;8.25;;;2.70;;
75358;SDS011;64046;51.978;5.934;2024-03-25T13:20:31;7.13;;;2.88;;
75358;SDS011;64046;51.978;5.934;2024-03-25T13:22:59;9.85;;;3.20;;
75358;SDS011;64046;51.978;5.934;2024-03-25T13:25:28;5.15;;;2.67;;
75358;SDS011;64046;51.978;5.934;2024-03-25T13:27:55;6.40;;;2.90;;
75358;SDS011;64046;51.978;5.934;2024-03-25T13:30:22;5.07;;;2.42;;
75358;SDS011;64046;51.978;5.934;2024-03-25T13:32:49;6.18;;;2.70;;
75358;SDS011;64046;51.978;5.934;2024-03-25T13:35:21;8.13;;;2.80;;
75358;SDS011;64046;51.978;5.934;2024-03-25T13:37:52;5.47;;;2.78;;
75358;SDS011;64046;51.978;5.934;2024-03-25T13:40:22;5.43;;;2.58;;
75358;SDS011;64046;51.978;5.934;2024-03-25T13:43:02;6.63;;;2.92;;
75358;SDS011;64046;51.978;5.934;2024-03-25T13:45:35;5.68;;;2.42;;
75358;SDS011;64046;51.978;5.934;2024-03-25T13:48:05;11.52;;;2.80;;
75358;SDS011;64046;51.978;5.934;2024-03-25T13:50:35;5.20;;;2.40;;
75358;SDS011;64046;51.978;5.934;2024-03-25T13:53:05;8.65;;;2.30;;
75358;SDS011;64046;51.978;5.934;2024-03-25T13:55:59;8.10;;;2.30;;
75358;SDS011;64046;51.978;5.934;2024-03-25T13:58:26;6.63;;;2.35;;
75358;SDS011;64046;51.978;5.934;2024-03-25T14:01:00;9.80;;;2.95;;
75358;SDS011;64046;51.978;5.934;2024-03-25T14:03:47;5.28;;;2.35;;
75358;SDS011;64046;51.978;5.934;2024-03-25T14:06:59;5.50;;;2.47;;
75358;SDS011;64046;51.978;5.934;2024-03-25T14:09:30;4.30;;;2.00;;
75358;SDS011;64046;51.978;5.934;2024-03-25T14:12:21;10.63;;;2.58;;
75358;SDS011;64046;51.978;5.934;2024-03-25T14:15:19;6.00;;;2.53;;
75358;SDS011;64046;51.978;5.934;2024-03-25T14:17:57;4.93;;;2.20;;
75358;SDS011;64046;51.978;5.934;2024-03-25T14:20:31;8.93;;;2.72;;
75358;SDS011;64046;51.978;5.934;2024-03-25T14:23:15;11.73;;;2.42;;
75358;SDS011;64046;51.978;5.934;2024-03-25T14:25:48;6.72;;;2.58;;
75358;SDS011;64046;51.978;5.934;2024-03-25T14:28:16;8.70;;;2.60;;
75358;SDS011;64046;51.978;5.934;2024-03-25T14:30:43;7.60;;;2.45;;
75358;SDS011;64046;51.978;5.934;2024-03-25T14:33:11;5.25;;;2.10;;
75358;SDS011;64046;51.978;5.934;2024-03-25T14:35:39;7.47;;;2.35;;
75358;SDS011;64046;51.978;5.934;2024-03-25T14:38:07;4.22;;;2.08;;
75358;SDS011;64046;51.978;5.934;2024-03-25T14:40:40;7.20;;;2.30;;
75358;SDS011;64046;51.978;5.934;2024-03-25T14:43:07;6.97;;;2.30;;
75358;SDS011;64046;51.978;5.934;2024-03-25T14:45:51;7.00;;;2.58;;
75358;SDS011;64046;51.978;5.934;2024-03-25T14:48:21;9.80;;;3.05;;
75358;SDS011;64046;51.978;5.934;2024-03-25T14:50:51;4.97;;;2.40;;
75358;SDS011;64046;51.978;5.934;2024-03-25T14:53:18;6.75;;;2.42;;
75358;SDS011;64046;51.978;5.934;2024-03-25T14:55:48;5.65;;;2.28;;
75358;SDS011;64046;51.978;5.934;2024-03-25T14:58:15;10.52;;;3.22;;
75358;SDS011;64046;51.978;5.934;2024-03-25T15:00:45;6.80;;;3.25;;
75358;SDS011;64046;51.978;5.934;2024-03-25T15:03:13;5.85;;;2.92;;
75358;SDS011;64046;51.978;5.934;2024-03-25T15:05:40;6.80;;;2.47;;
75358;SDS011;64046;51.978;5.934;2024-03-25T15:08:07;4.90;;;2.17;;
75358;SDS011;64046;51.978;5.934;2024-03-25T15:10:35;4.82;;;2.47;;
75358;SDS011;64046;51.978;5.934;2024-03-25T15:13:04;8.10;;;2.50;;
75358;SDS011;64046;51.978;5.934;2024-03-25T15:15:34;7.00;;;2.72;;
75358;SDS011;64046;51.978;5.934;2024-03-25T15:18:05;10.00;;;2.72;;
75358;SDS011;64046;51.978;5.934;2024-03-25T15:20:33;8.25;;;3.20;;